sensor_id;sensor_type;location;lat;lon;timestamp;temperature;humidity
60234;DHT22;49514;43.538;-5.708;2023-02-15T00:01:36;11.30;95.60
60234;DHT22;49514;43.538;-5.708;2023-02-15T00:04:04;11.30;96.10
60234;DHT22;49514;43.538;-5.708;2023-02-15T00:06:32;11.30;96.30
60234;DHT22;49514;43.538;-5.708;2023-02-15T00:08:59;11.20;96.60
60234;DHT22;49514;43.538;-5.708;2023-02-15T00:11:26;11.30;96.60
60234;DHT22;49514;43.538;-5.708;2023-02-15T00:14:19;11.30;96.70
60234;DHT22;49514;43.538;-5.708;2023-02-15T00:16:47;11.20;97.00
60234;DHT22;49514;43.538;-5.708;2023-02-15T00:19:16;11.20;97.40
60234;DHT22;49514;43.538;-5.708;2023-02-15T00:21:44;11.20;97.10
60234;DHT22;49514;43.538;-5.708;2023-02-15T00:24:12;11.20;97.10
60234;DHT22;49514;43.538;-5.708;2023-02-15T00:26:40;11.20;97.40
60234;DHT22;49514;43.538;-5.708;2023-02-15T00:29:09;11.20;97.20
60234;DHT22;49514;43.538;-5.708;2023-02-15T00:31:36;11.20;97.40
60234;DHT22;49514;43.538;-5.708;2023-02-15T00:34:04;11.20;97.50
60234;DHT22;49514;43.538;-5.708;2023-02-15T00:36:31;11.20;97.90
60234;DHT22;49514;43.538;-5.708;2023-02-15T00:38:58;11.20;97.20
60234;DHT22;49514;43.538;-5.708;2023-02-15T00:41:25;11.20;97.50
60234;DHT22;49514;43.538;-5.708;2023-02-15T00:43:52;11.10;97.20
60234;DHT22;49514;43.538;-5.708;2023-02-15T00:46:19;11.10;97.30
60234;DHT22;49514;43.538;-5.708;2023-02-15T00:48:45;11.10;97.70
60234;DHT22;49514;43.538;-5.708;2023-02-15T00:51:12;11.10;97.90
60234;DHT22;49514;43.538;-5.708;2023-02-15T00:53:39;11.20;98.40
60234;DHT22;49514;43.538;-5.708;2023-02-15T00:56:05;11.20;98.60
60234;DHT22;49514;43.538;-5.708;2023-02-15T00:58:32;11.20;98.60
60234;DHT22;49514;43.538;-5.708;2023-02-15T01:01:10;11.20;98.80
60234;DHT22;49514;43.538;-5.708;2023-02-15T01:03:37;11.20;98.60
60234;DHT22;49514;43.538;-5.708;2023-02-15T01:06:05;11.20;98.90
60234;DHT22;49514;43.538;-5.708;2023-02-15T01:08:31;11.20;98.60
60234;DHT22;49514;43.538;-5.708;2023-02-15T01:11:03;11.20;98.60
60234;DHT22;49514;43.538;-5.708;2023-02-15T01:13:30;11.20;98.90
60234;DHT22;49514;43.538;-5.708;2023-02-15T01:15:57;11.20;98.70
60234;DHT22;49514;43.538;-5.708;2023-02-15T01:18:24;11.20;98.70
60234;DHT22;49514;43.538;-5.708;2023-02-15T01:20:51;11.20;98.80
60234;DHT22;49514;43.538;-5.708;2023-02-15T01:23:17;11.10;98.80
60234;DHT22;49514;43.538;-5.708;2023-02-15T01:25:46;11.10;99.00
60234;DHT22;49514;43.538;-5.708;2023-02-15T01:28:13;11.10;98.80
60234;DHT22;49514;43.538;-5.708;2023-02-15T01:30:40;11.10;98.50
60234;DHT22;49514;43.538;-5.708;2023-02-15T01:33:07;11.10;98.50
60234;DHT22;49514;43.538;-5.708;2023-02-15T01:35:33;11.10;98.40
60234;DHT22;49514;43.538;-5.708;2023-02-15T01:38:00;11.10;98.70
60234;DHT22;49514;43.538;-5.708;2023-02-15T01:40:26;11.10;98.80
60234;DHT22;49514;43.538;-5.708;2023-02-15T01:42:54;11.10;99.10
60234;DHT22;49514;43.538;-5.708;2023-02-15T01:50:38;11.10;99.30
60234;DHT22;49514;43.538;-5.708;2023-02-15T01:53:13;11.10;99.20
60234;DHT22;49514;43.538;-5.708;2023-02-15T01:55:49;11.10;99.50
60234;DHT22;49514;43.538;-5.708;2023-02-15T01:58:17;11.10;99.30
60234;DHT22;49514;43.538;-5.708;2023-02-15T02:00:45;11.10;99.70
60234;DHT22;49514;43.538;-5.708;2023-02-15T02:03:12;11.00;99.70
60234;DHT22;49514;43.538;-5.708;2023-02-15T02:05:39;11.00;99.90
60234;DHT22;49514;43.538;-5.708;2023-02-15T02:08:07;11.00;99.90
60234;DHT22;49514;43.538;-5.708;2023-02-15T02:10:36;11.00;99.90
60234;DHT22;49514;43.538;-5.708;2023-02-15T02:13:04;10.90;99.90
60234;DHT22;49514;43.538;-5.708;2023-02-15T02:35:05;10.90;99.90
60234;DHT22;49514;43.538;-5.708;2023-02-15T02:38:05;10.90;99.90
60234;DHT22;49514;43.538;-5.708;2023-02-15T02:43:28;10.80;99.90
60234;DHT22;49514;43.538;-5.708;2023-02-15T02:46:06;10.80;99.90
60234;DHT22;49514;43.538;-5.708;2023-02-15T02:48:33;10.90;99.90
60234;DHT22;49514;43.538;-5.708;2023-02-15T02:51:00;10.90;99.90
60234;DHT22;49514;43.538;-5.708;2023-02-15T02:53:30;10.90;99.90
60234;DHT22;49514;43.538;-5.708;2023-02-15T02:56:01;10.90;99.90
60234;DHT22;49514;43.538;-5.708;2023-02-15T03:01:12;10.80;99.90
60234;DHT22;49514;43.538;-5.708;2023-02-15T03:03:53;10.80;99.90
60234;DHT22;49514;43.538;-5.708;2023-02-15T03:12:24;10.80;99.90
60234;DHT22;49514;43.538;-5.708;2023-02-15T03:14:56;10.80;99.90
60234;DHT22;49514;43.538;-5.708;2023-02-15T03:17:25;10.80;99.90
60234;DHT22;49514;43.538;-5.708;2023-02-15T03:19:57;10.80;99.90
60234;DHT22;49514;43.538;-5.708;2023-02-15T03:22:40;10.80;99.90
60234;DHT22;49514;43.538;-5.708;2023-02-15T03:25:25;10.80;99.90
60234;DHT22;49514;43.538;-5.708;2023-02-15T03:27:58;10.80;99.90
60234;DHT22;49514;43.538;-5.708;2023-02-15T03:30:27;10.80;99.90
60234;DHT22;49514;43.538;-5.708;2023-02-15T03:32:59;10.80;99.90
60234;DHT22;49514;43.538;-5.708;2023-02-15T03:35:53;10.90;99.90
60234;DHT22;49514;43.538;-5.708;2023-02-15T03:38:40;10.90;99.90
60234;DHT22;49514;43.538;-5.708;2023-02-15T03:41:10;10.90;99.90
60234;DHT22;49514;43.538;-5.708;2023-02-15T03:48:47;10.90;99.90
60234;DHT22;49514;43.538;-5.708;2023-02-15T03:51:20;10.90;99.90
60234;DHT22;49514;43.538;-5.708;2023-02-15T03:54:24;10.90;99.90
60234;DHT22;49514;43.538;-5.708;2023-02-15T03:57:28;10.90;99.90
60234;DHT22;49514;43.538;-5.708;2023-02-15T04:00:22;10.90;99.90
60234;DHT22;49514;43.538;-5.708;2023-02-15T04:05:44;10.80;99.90
60234;DHT22;49514;43.538;-5.708;2023-02-15T04:08:12;10.70;99.90
60234;DHT22;49514;43.538;-5.708;2023-02-15T04:10:39;10.70;99.90
60234;DHT22;49514;43.538;-5.708;2023-02-15T04:13:29;10.70;99.90
60234;DHT22;49514;43.538;-5.708;2023-02-15T04:15:56;10.70;99.90
60234;DHT22;49514;43.538;-5.708;2023-02-15T04:18:37;10.60;99.90
60234;DHT22;49514;43.538;-5.708;2023-02-15T04:21:24;10.60;99.90
60234;DHT22;49514;43.538;-5.708;2023-02-15T04:24:09;10.60;99.90
60234;DHT22;49514;43.538;-5.708;2023-02-15T04:26:55;10.50;99.90
60234;DHT22;49514;43.538;-5.708;2023-02-15T04:29:23;10.50;99.90
60234;DHT22;49514;43.538;-5.708;2023-02-15T04:31:51;10.50;99.90
60234;DHT22;49514;43.538;-5.708;2023-02-15T04:34:18;10.50;99.90
60234;DHT22;49514;43.538;-5.708;2023-02-15T04:36:45;10.50;99.90
60234;DHT22;49514;43.538;-5.708;2023-02-15T04:39:16;10.40;99.90
60234;DHT22;49514;43.538;-5.708;2023-02-15T04:41:43;10.50;99.90
60234;DHT22;49514;43.538;-5.708;2023-02-15T04:44:10;10.40;99.90
60234;DHT22;49514;43.538;-5.708;2023-02-15T04:46:37;10.40;99.90
60234;DHT22;49514;43.538;-5.708;2023-02-15T04:49:04;10.40;99.90
60234;DHT22;49514;43.538;-5.708;2023-02-15T04:51:30;10.40;99.90
60234;DHT22;49514;43.538;-5.708;2023-02-15T04:53:57;10.30;99.90
60234;DHT22;49514;43.538;-5.708;2023-02-15T04:56:23;10.30;99.90
60234;DHT22;49514;43.538;-5.708;2023-02-15T04:58:50;10.30;99.90
60234;DHT22;49514;43.538;-5.708;2023-02-15T05:01:17;10.30;99.90
60234;DHT22;49514;43.538;-5.708;2023-02-15T05:03:43;10.30;99.90
60234;DHT22;49514;43.538;-5.708;2023-02-15T05:06:10;10.30;99.90
60234;DHT22;49514;43.538;-5.708;2023-02-15T05:08:36;10.30;99.90
60234;DHT22;49514;43.538;-5.708;2023-02-15T05:11:03;10.20;99.90
60234;DHT22;49514;43.538;-5.708;2023-02-15T05:13:30;10.20;99.90
60234;DHT22;49514;43.538;-5.708;2023-02-15T05:15:56;10.10;99.90
60234;DHT22;49514;43.538;-5.708;2023-02-15T05:18:23;10.10;99.90
60234;DHT22;49514;43.538;-5.708;2023-02-15T05:20:49;10.00;99.90
60234;DHT22;49514;43.538;-5.708;2023-02-15T05:23:16;10.00;99.90
60234;DHT22;49514;43.538;-5.708;2023-02-15T05:25:49;9.90;99.90
60234;DHT22;49514;43.538;-5.708;2023-02-15T05:28:36;10.00;99.90
60234;DHT22;49514;43.538;-5.708;2023-02-15T05:33:34;9.80;99.90
60234;DHT22;49514;43.538;-5.708;2023-02-15T05:36:02;9.80;99.90
60234;DHT22;49514;43.538;-5.708;2023-02-15T05:38:29;9.80;99.90
60234;DHT22;49514;43.538;-5.708;2023-02-15T05:40:56;9.70;99.90
60234;DHT22;49514;43.538;-5.708;2023-02-15T05:43:23;9.70;99.90
60234;DHT22;49514;43.538;-5.708;2023-02-15T05:45:52;9.70;99.90
60234;DHT22;49514;43.538;-5.708;2023-02-15T05:48:21;9.70;99.90
60234;DHT22;49514;43.538;-5.708;2023-02-15T05:51:00;9.60;99.90
60234;DHT22;49514;43.538;-5.708;2023-02-15T05:53:29;9.60;99.90
60234;DHT22;49514;43.538;-5.708;2023-02-15T05:55:55;9.60;99.90
60234;DHT22;49514;43.538;-5.708;2023-02-15T05:58:33;9.60;99.90
60234;DHT22;49514;43.538;-5.708;2023-02-15T06:01:10;9.60;99.90
60234;DHT22;49514;43.538;-5.708;2023-02-15T06:03:37;9.60;99.90
60234;DHT22;49514;43.538;-5.708;2023-02-15T06:06:05;9.60;99.90
60234;DHT22;49514;43.538;-5.708;2023-02-15T06:08:33;9.50;99.90
60234;DHT22;49514;43.538;-5.708;2023-02-15T06:11:00;9.50;99.90
60234;DHT22;49514;43.538;-5.708;2023-02-15T06:13:27;9.40;99.90
60234;DHT22;49514;43.538;-5.708;2023-02-15T06:15:53;9.40;99.90
60234;DHT22;49514;43.538;-5.708;2023-02-15T06:18:20;9.40;99.90
60234;DHT22;49514;43.538;-5.708;2023-02-15T06:20:47;9.40;99.90
60234;DHT22;49514;43.538;-5.708;2023-02-15T06:23:14;9.30;99.90
60234;DHT22;49514;43.538;-5.708;2023-02-15T06:25:41;9.30;99.90
60234;DHT22;49514;43.538;-5.708;2023-02-15T06:28:08;9.30;99.90
60234;DHT22;49514;43.538;-5.708;2023-02-15T06:30:34;9.30;99.90
60234;DHT22;49514;43.538;-5.708;2023-02-15T06:33:01;9.30;99.90
60234;DHT22;49514;43.538;-5.708;2023-02-15T06:35:27;9.30;99.90
60234;DHT22;49514;43.538;-5.708;2023-02-15T06:37:54;9.30;99.90
60234;DHT22;49514;43.538;-5.708;2023-02-15T06:40:21;9.20;99.90
60234;DHT22;49514;43.538;-5.708;2023-02-15T06:42:47;9.30;99.90
60234;DHT22;49514;43.538;-5.708;2023-02-15T06:45:14;9.30;99.90
60234;DHT22;49514;43.538;-5.708;2023-02-15T06:47:41;9.30;99.90
60234;DHT22;49514;43.538;-5.708;2023-02-15T06:50:08;9.30;99.90
60234;DHT22;49514;43.538;-5.708;2023-02-15T06:52:35;9.30;99.90
60234;DHT22;49514;43.538;-5.708;2023-02-15T06:55:01;9.30;99.90
60234;DHT22;49514;43.538;-5.708;2023-02-15T06:57:28;9.30;99.90
60234;DHT22;49514;43.538;-5.708;2023-02-15T06:59:55;9.30;99.90
60234;DHT22;49514;43.538;-5.708;2023-02-15T07:02:21;9.30;99.90
60234;DHT22;49514;43.538;-5.708;2023-02-15T07:04:48;9.30;99.90
60234;DHT22;49514;43.538;-5.708;2023-02-15T07:07:15;9.30;99.90
60234;DHT22;49514;43.538;-5.708;2023-02-15T07:09:41;9.20;99.90
60234;DHT22;49514;43.538;-5.708;2023-02-15T07:12:09;9.20;99.90
60234;DHT22;49514;43.538;-5.708;2023-02-15T07:14:54;9.20;99.90
60234;DHT22;49514;43.538;-5.708;2023-02-15T07:17:21;9.20;99.90
60234;DHT22;49514;43.538;-5.708;2023-02-15T07:19:48;9.20;99.90
60234;DHT22;49514;43.538;-5.708;2023-02-15T07:22:15;9.20;99.90
60234;DHT22;49514;43.538;-5.708;2023-02-15T07:24:41;9.10;99.90
60234;DHT22;49514;43.538;-5.708;2023-02-15T07:27:08;9.10;99.90
60234;DHT22;49514;43.538;-5.708;2023-02-15T07:29:34;9.20;99.90
60234;DHT22;49514;43.538;-5.708;2023-02-15T07:32:01;9.20;99.90
60234;DHT22;49514;43.538;-5.708;2023-02-15T07:34:28;9.20;99.90
60234;DHT22;49514;43.538;-5.708;2023-02-15T07:36:54;9.30;99.90
60234;DHT22;49514;43.538;-5.708;2023-02-15T07:39:21;9.30;99.90
60234;DHT22;49514;43.538;-5.708;2023-02-15T07:41:48;9.30;99.90
60234;DHT22;49514;43.538;-5.708;2023-02-15T07:44:15;9.30;99.90
60234;DHT22;49514;43.538;-5.708;2023-02-15T07:46:41;9.40;99.90
60234;DHT22;49514;43.538;-5.708;2023-02-15T07:49:08;9.40;99.90
60234;DHT22;49514;43.538;-5.708;2023-02-15T07:51:35;9.50;99.90
60234;DHT22;49514;43.538;-5.708;2023-02-15T07:54:01;9.50;99.90
60234;DHT22;49514;43.538;-5.708;2023-02-15T07:56:28;9.50;99.90
60234;DHT22;49514;43.538;-5.708;2023-02-15T07:58:54;9.60;99.90
60234;DHT22;49514;43.538;-5.708;2023-02-15T08:01:33;9.60;99.90
60234;DHT22;49514;43.538;-5.708;2023-02-15T08:03:59;9.70;99.90
60234;DHT22;49514;43.538;-5.708;2023-02-15T08:06:29;9.70;99.90
60234;DHT22;49514;43.538;-5.708;2023-02-15T08:08:56;9.70;99.90
60234;DHT22;49514;43.538;-5.708;2023-02-15T08:11:25;9.80;99.90
60234;DHT22;49514;43.538;-5.708;2023-02-15T08:13:54;9.80;99.90
60234;DHT22;49514;43.538;-5.708;2023-02-15T08:16:27;9.90;99.90
60234;DHT22;49514;43.538;-5.708;2023-02-15T08:18:55;9.90;99.90
60234;DHT22;49514;43.538;-5.708;2023-02-15T08:21:24;9.90;99.90
60234;DHT22;49514;43.538;-5.708;2023-02-15T08:23:51;10.00;99.90
60234;DHT22;49514;43.538;-5.708;2023-02-15T08:26:18;10.00;99.90
60234;DHT22;49514;43.538;-5.708;2023-02-15T08:28:45;10.10;99.90
60234;DHT22;49514;43.538;-5.708;2023-02-15T08:31:13;10.10;99.90
60234;DHT22;49514;43.538;-5.708;2023-02-15T08:33:41;10.20;99.90
60234;DHT22;49514;43.538;-5.708;2023-02-15T08:36:13;10.20;99.90
60234;DHT22;49514;43.538;-5.708;2023-02-15T08:38:41;10.30;99.90
60234;DHT22;49514;43.538;-5.708;2023-02-15T08:41:17;10.30;99.90
60234;DHT22;49514;43.538;-5.708;2023-02-15T08:43:47;10.40;99.90
60234;DHT22;49514;43.538;-5.708;2023-02-15T08:46:15;10.40;99.90
60234;DHT22;49514;43.538;-5.708;2023-02-15T08:48:43;10.50;99.90
60234;DHT22;49514;43.538;-5.708;2023-02-15T08:51:19;10.60;99.90
60234;DHT22;49514;43.538;-5.708;2023-02-15T08:53:48;10.60;99.90
60234;DHT22;49514;43.538;-5.708;2023-02-15T08:56:16;10.60;99.90
60234;DHT22;49514;43.538;-5.708;2023-02-15T08:58:43;10.70;99.90
60234;DHT22;49514;43.538;-5.708;2023-02-15T09:03:39;10.80;99.90
60234;DHT22;49514;43.538;-5.708;2023-02-15T09:06:06;10.90;99.90
60234;DHT22;49514;43.538;-5.708;2023-02-15T09:08:33;10.90;99.90
60234;DHT22;49514;43.538;-5.708;2023-02-15T09:11:27;11.00;99.90
60234;DHT22;49514;43.538;-5.708;2023-02-15T09:16:23;11.10;99.90
60234;DHT22;49514;43.538;-5.708;2023-02-15T09:18:50;11.20;99.90
60234;DHT22;49514;43.538;-5.708;2023-02-15T09:21:20;11.30;99.90
60234;DHT22;49514;43.538;-5.708;2023-02-15T09:23:48;11.30;99.90
60234;DHT22;49514;43.538;-5.708;2023-02-15T09:26:20;11.40;99.90
60234;DHT22;49514;43.538;-5.708;2023-02-15T09:28:50;11.50;99.90
60234;DHT22;49514;43.538;-5.708;2023-02-15T09:31:20;11.60;99.90
60234;DHT22;49514;43.538;-5.708;2023-02-15T09:33:48;11.70;99.90
60234;DHT22;49514;43.538;-5.708;2023-02-15T09:36:25;11.80;99.90
60234;DHT22;49514;43.538;-5.708;2023-02-15T09:44:10;12.00;99.90
60234;DHT22;49514;43.538;-5.708;2023-02-15T09:56:18;12.30;99.90
60234;DHT22;49514;43.538;-5.708;2023-02-15T09:59:55;12.40;99.90
60234;DHT22;49514;43.538;-5.708;2023-02-15T10:14:12;12.80;99.90
60234;DHT22;49514;43.538;-5.708;2023-02-15T10:17:06;12.90;99.90
60234;DHT22;49514;43.538;-5.708;2023-02-15T10:25:33;13.00;99.90
60234;DHT22;49514;43.538;-5.708;2023-02-15T10:28:15;13.10;99.90
60234;DHT22;49514;43.538;-5.708;2023-02-15T10:33:41;13.20;99.90
60234;DHT22;49514;43.538;-5.708;2023-02-15T10:36:44;13.30;99.90
60234;DHT22;49514;43.538;-5.708;2023-02-15T10:39:30;13.40;99.90
60234;DHT22;49514;43.538;-5.708;2023-02-15T10:45:11;13.50;99.90
60234;DHT22;49514;43.538;-5.708;2023-02-15T10:50:29;13.70;99.90
60234;DHT22;49514;43.538;-5.708;2023-02-15T10:58:59;13.90;99.90
60234;DHT22;49514;43.538;-5.708;2023-02-15T11:01:44;14.00;99.90
60234;DHT22;49514;43.538;-5.708;2023-02-15T11:06:59;14.20;99.90
60234;DHT22;49514;43.538;-5.708;2023-02-15T11:09:41;14.30;99.90
60234;DHT22;49514;43.538;-5.708;2023-02-15T11:12:10;14.40;99.90
60234;DHT22;49514;43.538;-5.708;2023-02-15T11:14:41;14.40;99.60
60234;DHT22;49514;43.538;-5.708;2023-02-15T11:17:16;14.40;99.30
60234;DHT22;49514;43.538;-5.708;2023-02-15T11:22:14;14.50;99.70
60234;DHT22;49514;43.538;-5.708;2023-02-15T11:24:43;14.60;99.50
60234;DHT22;49514;43.538;-5.708;2023-02-15T11:27:31;14.60;98.90
60234;DHT22;49514;43.538;-5.708;2023-02-15T11:30:12;14.70;98.40
60234;DHT22;49514;43.538;-5.708;2023-02-15T11:32:48;14.70;98.20
60234;DHT22;49514;43.538;-5.708;2023-02-15T11:35:32;14.80;98.00
60234;DHT22;49514;43.538;-5.708;2023-02-15T11:38:20;14.80;97.90
60234;DHT22;49514;43.538;-5.708;2023-02-15T11:40:54;14.90;97.60
60234;DHT22;49514;43.538;-5.708;2023-02-15T11:43:39;15.00;97.50
60234;DHT22;49514;43.538;-5.708;2023-02-15T11:46:07;15.10;97.10
60234;DHT22;49514;43.538;-5.708;2023-02-15T11:48:36;15.20;96.10
60234;DHT22;49514;43.538;-5.708;2023-02-15T11:51:04;15.30;95.30
60234;DHT22;49514;43.538;-5.708;2023-02-15T11:53:37;15.40;95.00
60234;DHT22;49514;43.538;-5.708;2023-02-15T11:56:10;15.40;95.20
60234;DHT22;49514;43.538;-5.708;2023-02-15T11:58:49;15.50;95.40
60234;DHT22;49514;43.538;-5.708;2023-02-15T12:07:34;15.80;94.00
60234;DHT22;49514;43.538;-5.708;2023-02-15T12:12:26;16.30;96.80
60234;DHT22;49514;43.538;-5.708;2023-02-15T12:14:58;16.30;93.30
60234;DHT22;49514;43.538;-5.708;2023-02-15T12:17:28;16.40;92.10
60234;DHT22;49514;43.538;-5.708;2023-02-15T12:19:56;16.50;92.00
60234;DHT22;49514;43.538;-5.708;2023-02-15T12:22:24;16.60;91.90
60234;DHT22;49514;43.538;-5.708;2023-02-15T12:24:52;16.70;91.50
60234;DHT22;49514;43.538;-5.708;2023-02-15T12:27:21;16.80;91.10
60234;DHT22;49514;43.538;-5.708;2023-02-15T12:29:59;16.90;90.90
60234;DHT22;49514;43.538;-5.708;2023-02-15T12:32:31;17.10;91.00
60234;DHT22;49514;43.538;-5.708;2023-02-15T12:35:09;17.30;90.40
60234;DHT22;49514;43.538;-5.708;2023-02-15T12:45:00;20.20;88.00
60234;DHT22;49514;43.538;-5.708;2023-02-15T12:47:30;21.60;77.00
60234;DHT22;49514;43.538;-5.708;2023-02-15T12:50:12;23.40;72.70
60234;DHT22;49514;43.538;-5.708;2023-02-15T12:52:49;24.60;70.70
60234;DHT22;49514;43.538;-5.708;2023-02-15T12:55:21;25.90;63.60
60234;DHT22;49514;43.538;-5.708;2023-02-15T12:57:48;28.20;66.30
60234;DHT22;49514;43.538;-5.708;2023-02-15T13:02:50;30.40;61.00
60234;DHT22;49514;43.538;-5.708;2023-02-15T13:07:50;31.80;57.10
60234;DHT22;49514;43.538;-5.708;2023-02-15T13:12:56;32.90;54.30
60234;DHT22;49514;43.538;-5.708;2023-02-15T13:15:45;33.60;54.10
60234;DHT22;49514;43.538;-5.708;2023-02-15T13:18:31;34.40;51.90
60234;DHT22;49514;43.538;-5.708;2023-02-15T13:21:04;34.40;49.60
60234;DHT22;49514;43.538;-5.708;2023-02-15T13:23:32;35.10;51.10
60234;DHT22;49514;43.538;-5.708;2023-02-15T13:25:59;36.00;52.10
60234;DHT22;49514;43.538;-5.708;2023-02-15T13:28:34;36.10;49.30
60234;DHT22;49514;43.538;-5.708;2023-02-15T13:31:04;36.70;48.80
60234;DHT22;49514;43.538;-5.708;2023-02-15T13:33:37;36.90;50.40
60234;DHT22;49514;43.538;-5.708;2023-02-15T13:36:05;37.40;51.30
60234;DHT22;49514;43.538;-5.708;2023-02-15T13:38:41;37.50;46.20
60234;DHT22;49514;43.538;-5.708;2023-02-15T13:41:11;37.70;46.20
60234;DHT22;49514;43.538;-5.708;2023-02-15T13:43:47;38.30;45.20
60234;DHT22;49514;43.538;-5.708;2023-02-15T13:49:14;39.50;46.10
60234;DHT22;49514;43.538;-5.708;2023-02-15T14:05:29;41.30;44.70
60234;DHT22;49514;43.538;-5.708;2023-02-15T14:08:12;41.10;42.50
60234;DHT22;49514;43.538;-5.708;2023-02-15T14:13:45;40.30;41.30
60234;DHT22;49514;43.538;-5.708;2023-02-15T14:16:33;40.40;41.10
60234;DHT22;49514;43.538;-5.708;2023-02-15T14:19:10;40.10;41.50
60234;DHT22;49514;43.538;-5.708;2023-02-15T14:21:44;39.90;40.90
60234;DHT22;49514;43.538;-5.708;2023-02-15T14:27:08;39.30;42.00
60234;DHT22;49514;43.538;-5.708;2023-02-15T14:29:49;39.10;40.30
60234;DHT22;49514;43.538;-5.708;2023-02-15T14:34:59;38.60;40.90
60234;DHT22;49514;43.538;-5.708;2023-02-15T14:37:29;39.00;40.80
60234;DHT22;49514;43.538;-5.708;2023-02-15T14:42:57;38.90;39.80
60234;DHT22;49514;43.538;-5.708;2023-02-15T14:45:29;38.50;40.00
60234;DHT22;49514;43.538;-5.708;2023-02-15T14:50:40;37.60;40.40
60234;DHT22;49514;43.538;-5.708;2023-02-15T15:03:53;38.60;40.40
60234;DHT22;49514;43.538;-5.708;2023-02-15T15:06:27;38.80;40.70
60234;DHT22;49514;43.538;-5.708;2023-02-15T15:09:01;39.00;40.60
60234;DHT22;49514;43.538;-5.708;2023-02-15T15:11:37;38.40;40.80
60234;DHT22;49514;43.538;-5.708;2023-02-15T15:14:04;38.50;40.80
60234;DHT22;49514;43.538;-5.708;2023-02-15T15:19:04;37.90;40.20
60234;DHT22;49514;43.538;-5.708;2023-02-15T15:29:47;37.40;41.00
60234;DHT22;49514;43.538;-5.708;2023-02-15T15:32:13;37.40;41.00
60234;DHT22;49514;43.538;-5.708;2023-02-15T15:34:54;37.60;40.80
60234;DHT22;49514;43.538;-5.708;2023-02-15T15:40:00;37.50;40.20
60234;DHT22;49514;43.538;-5.708;2023-02-15T15:45:26;37.40;40.20
60234;DHT22;49514;43.538;-5.708;2023-02-15T15:50:24;37.50;40.40
60234;DHT22;49514;43.538;-5.708;2023-02-15T15:52:53;37.00;40.30
60234;DHT22;49514;43.538;-5.708;2023-02-15T15:55:21;37.10;40.70
60234;DHT22;49514;43.538;-5.708;2023-02-15T15:57:52;37.30;40.60
60234;DHT22;49514;43.538;-5.708;2023-02-15T16:05:22;37.70;55.80
60234;DHT22;49514;43.538;-5.708;2023-02-15T16:07:48;37.40;44.50
60234;DHT22;49514;43.538;-5.708;2023-02-15T16:10:22;37.50;40.40
60234;DHT22;49514;43.538;-5.708;2023-02-15T16:15:20;37.20;50.30
60234;DHT22;49514;43.538;-5.708;2023-02-15T16:17:48;36.70;40.60
60234;DHT22;49514;43.538;-5.708;2023-02-15T16:20:23;36.70;72.00
60234;DHT22;49514;43.538;-5.708;2023-02-15T16:42:57;35.50;41.30
60234;DHT22;49514;43.538;-5.708;2023-02-15T16:45:26;35.40;49.30
60234;DHT22;49514;43.538;-5.708;2023-02-15T16:47:55;35.10;44.00
60234;DHT22;49514;43.538;-5.708;2023-02-15T16:52:49;34.10;44.70
60234;DHT22;49514;43.538;-5.708;2023-02-15T16:55:22;32.70;47.00
60234;DHT22;49514;43.538;-5.708;2023-02-15T16:57:48;31.40;45.90
60234;DHT22;49514;43.538;-5.708;2023-02-15T17:00:20;30.10;43.40
60234;DHT22;49514;43.538;-5.708;2023-02-15T17:08:34;27.20;69.60
60234;DHT22;49514;43.538;-5.708;2023-02-15T17:11:19;26.50;46.90
60234;DHT22;49514;43.538;-5.708;2023-02-15T17:16:44;25.30;47.70
60234;DHT22;49514;43.538;-5.708;2023-02-15T17:19:22;24.90;48.20
60234;DHT22;49514;43.538;-5.708;2023-02-15T17:21:53;24.40;49.10
60234;DHT22;49514;43.538;-5.708;2023-02-15T17:24:39;24.10;48.30
60234;DHT22;49514;43.538;-5.708;2023-02-15T17:29:48;23.40;49.00
60234;DHT22;49514;43.538;-5.708;2023-02-15T17:32:29;23.10;50.10
60234;DHT22;49514;43.538;-5.708;2023-02-15T17:35:24;22.80;50.10
60234;DHT22;49514;43.538;-5.708;2023-02-15T17:38:19;22.50;50.80
60234;DHT22;49514;43.538;-5.708;2023-02-15T17:40:46;22.20;51.30
60234;DHT22;49514;43.538;-5.708;2023-02-15T17:43:13;21.80;51.50
60234;DHT22;49514;43.538;-5.708;2023-02-15T17:51:01;21.10;53.80
60234;DHT22;49514;43.538;-5.708;2023-02-15T17:53:28;20.80;53.50
60234;DHT22;49514;43.538;-5.708;2023-02-15T17:55:55;20.60;53.50
60234;DHT22;49514;43.538;-5.708;2023-02-15T17:58:22;20.40;54.40
60234;DHT22;49514;43.538;-5.708;2023-02-15T18:00:54;20.20;54.70
60234;DHT22;49514;43.538;-5.708;2023-02-15T18:03:40;20.00;55.10
60234;DHT22;49514;43.538;-5.708;2023-02-15T18:06:26;19.80;55.60
60234;DHT22;49514;43.538;-5.708;2023-02-15T18:09:16;19.60;55.70
60234;DHT22;49514;43.538;-5.708;2023-02-15T18:12:02;19.40;56.30
60234;DHT22;49514;43.538;-5.708;2023-02-15T18:14:32;19.10;57.70
60234;DHT22;49514;43.538;-5.708;2023-02-15T18:16:58;19.10;56.80
60234;DHT22;49514;43.538;-5.708;2023-02-15T18:24:24;18.50;58.20
60234;DHT22;49514;43.538;-5.708;2023-02-15T18:26:53;18.30;59.50
60234;DHT22;49514;43.538;-5.708;2023-02-15T18:29:21;18.20;58.40
60234;DHT22;49514;43.538;-5.708;2023-02-15T18:31:51;18.00;60.00
60234;DHT22;49514;43.538;-5.708;2023-02-15T18:34:28;17.90;60.10
60234;DHT22;49514;43.538;-5.708;2023-02-15T18:36:57;17.70;61.50
60234;DHT22;49514;43.538;-5.708;2023-02-15T18:39:41;17.60;63.20
60234;DHT22;49514;43.538;-5.708;2023-02-15T18:44:47;17.30;61.90
60234;DHT22;49514;43.538;-5.708;2023-02-15T18:47:14;17.30;63.20
60234;DHT22;49514;43.538;-5.708;2023-02-15T18:49:42;17.20;64.00
60234;DHT22;49514;43.538;-5.708;2023-02-15T18:52:30;17.20;64.00
60234;DHT22;49514;43.538;-5.708;2023-02-15T18:55:00;17.10;66.70
60234;DHT22;49514;43.538;-5.708;2023-02-15T18:57:28;17.00;67.30
60234;DHT22;49514;43.538;-5.708;2023-02-15T18:59:55;16.80;66.00
60234;DHT22;49514;43.538;-5.708;2023-02-15T19:02:22;16.70;67.60
60234;DHT22;49514;43.538;-5.708;2023-02-15T19:04:48;16.60;66.20
60234;DHT22;49514;43.538;-5.708;2023-02-15T19:07:25;16.50;67.20
60234;DHT22;49514;43.538;-5.708;2023-02-15T19:09:57;16.40;67.90
60234;DHT22;49514;43.538;-5.708;2023-02-15T19:12:29;16.30;68.50
60234;DHT22;49514;43.538;-5.708;2023-02-15T19:14:56;16.20;69.10
60234;DHT22;49514;43.538;-5.708;2023-02-15T19:17:23;16.20;71.90
60234;DHT22;49514;43.538;-5.708;2023-02-15T19:19:51;16.10;73.20
60234;DHT22;49514;43.538;-5.708;2023-02-15T19:22:29;16.10;72.40
60234;DHT22;49514;43.538;-5.708;2023-02-15T19:24:59;16.10;73.60
60234;DHT22;49514;43.538;-5.708;2023-02-15T19:29:56;16.00;76.60
60234;DHT22;49514;43.538;-5.708;2023-02-15T19:32:23;15.90;78.30
60234;DHT22;49514;43.538;-5.708;2023-02-15T19:34:50;15.80;77.20
60234;DHT22;49514;43.538;-5.708;2023-02-15T19:37:53;15.80;79.00
60234;DHT22;49514;43.538;-5.708;2023-02-15T19:40:23;15.70;81.20
60234;DHT22;49514;43.538;-5.708;2023-02-15T19:42:50;15.60;80.40
60234;DHT22;49514;43.538;-5.708;2023-02-15T19:45:22;15.60;82.20
60234;DHT22;49514;43.538;-5.708;2023-02-15T19:47:50;15.50;83.60
60234;DHT22;49514;43.538;-5.708;2023-02-15T19:50:21;15.40;83.90
60234;DHT22;49514;43.538;-5.708;2023-02-15T19:52:48;15.30;84.40